createdAt,value
2018-03-29T00:00:06.280Z,93.32
2018-03-29T00:01:06.273Z,93.41
2018-03-29T00:02:59.181Z,93.41
2018-03-29T00:03:59.196Z,93.41
2018-03-29T00:05:52.110Z,93.41
2018-03-29T00:06:52.104Z,93.41
2018-03-29T00:08:45.033Z,94.37
2018-03-29T00:09:45.019Z,94.74
2018-03-29T00:11:37.932Z,94.37
2018-03-29T00:12:37.928Z,94.74
2018-03-29T00:14:30.845Z,94.74
2018-03-29T00:15:30.837Z,94.18
2018-03-29T00:17:23.735Z,94.08
2018-03-29T00:18:23.750Z,94.46
2018-03-29T00:20:16.667Z,94.46
2018-03-29T00:21:16.662Z,94.56
2018-03-29T00:23:09.558Z,94.65
2018-03-29T00:24:09.572Z,94.37
2018-03-29T00:26:02.488Z,94.93
2018-03-29T00:27:02.482Z,95.22
2018-03-29T00:28:55.379Z,94.84
2018-03-29T00:29:55.393Z,95.03
2018-03-29T00:31:48.312Z,95.03
2018-03-29T00:32:48.304Z,94.93
2018-03-29T00:34:41.222Z,95.31
2018-03-29T00:35:41.211Z,94.27
2018-03-29T00:37:34.109Z,94.65
2018-03-29T00:38:34.124Z,93.99
2018-03-29T00:40:27.040Z,94.18
2018-03-29T00:41:27.036Z,93.99
2018-03-29T00:43:19.944Z,93.61
2018-03-29T00:44:19.962Z,93.41
2018-03-29T00:46:12.883Z,92.94
2018-03-29T00:47:12.872Z,92.94
2018-03-29T00:49:05.767Z,92.85
2018-03-29T00:50:05.781Z,92.85
2018-03-29T00:51:58.697Z,93.13
2018-03-29T00:52:58.693Z,92.57
2018-03-29T00:54:51.588Z,93.04
2018-03-29T00:55:51.603Z,93.32
2018-03-29T00:57:44.519Z,93.41
2018-03-29T00:58:44.514Z,93.51
2018-03-29T01:00:37.429Z,93.61
2018-03-29T01:01:37.424Z,93.32
2018-03-29T01:03:30.340Z,94.08
2018-03-29T01:04:30.335Z,93.89
2018-03-29T01:06:23.260Z,93.13
2018-03-29T01:07:23.254Z,93.41
2018-03-29T01:09:16.150Z,93.04
2018-03-29T01:10:16.162Z,93.13
2018-03-29T01:12:09.077Z,92.85
2018-03-29T01:13:09.072Z,93.04
2018-03-29T01:15:01.969Z,92.94
2018-03-29T01:16:01.990Z,92.94
2018-03-29T01:17:54.897Z,92.85
2018-03-29T01:18:54.891Z,92.47
2018-03-29T01:20:47.788Z,93.13
2018-03-29T01:21:47.802Z,93.04
2018-03-29T01:23:40.716Z,92.76
2018-03-29T01:24:40.712Z,92.76
2018-03-29T01:26:33.646Z,92.94
2018-03-29T01:27:33.626Z,92.66
2018-03-29T01:29:26.519Z,92.57
2018-03-29T01:30:26.535Z,92.57
2018-03-29T01:32:19.460Z,92.28
2018-03-29T01:33:19.444Z,92.09
2018-03-29T01:35:12.340Z,92.09
2018-03-29T01:36:12.354Z,91.52
2018-03-29T01:38:05.266Z,91.90
2018-03-29T01:39:05.265Z,91.42
2018-03-29T01:40:58.157Z,91.52
2018-03-29T01:41:58.174Z,91.80
2018-03-29T01:43:51.085Z,90.86
2018-03-29T01:44:51.082Z,91.24
2018-03-29T01:46:43.983Z,91.61
2018-03-29T01:47:43.999Z,91.05
2018-03-29T01:49:36.913Z,91.33
2018-03-29T01:50:36.914Z,91.42
2018-03-29T01:52:29.843Z,91.14
2018-03-29T01:53:29.823Z,91.05
2018-03-29T01:55:22.716Z,90.86
2018-03-29T01:56:22.732Z,90.95
2018-03-29T01:58:15.654Z,90.10
2018-03-29T01:59:15.644Z,90.38
2018-03-29T02:01:08.601Z,90.38
2018-03-29T02:02:08.554Z,90.19
2018-03-29T02:04:01.470Z,90.76
2018-03-29T02:05:01.465Z,90.19
2018-03-29T02:06:54.360Z,90.67
2018-03-29T02:07:54.375Z,91.05
2018-03-29T02:09:47.287Z,90.76
2018-03-29T02:10:47.302Z,90.95
2018-03-29T02:12:40.259Z,90.76
2018-03-29T02:13:40.206Z,90.95
2018-03-29T02:15:33.094Z,90.57
2018-03-29T02:16:33.110Z,90.95
2018-03-29T02:18:26.026Z,90.57
2018-03-29T02:19:26.018Z,91.05
2018-03-29T02:21:18.920Z,91.14
2018-03-29T02:22:18.931Z,91.38
2018-03-29T02:24:11.845Z,91.47
2018-03-29T02:25:11.844Z,91.19
2018-03-29T02:27:04.740Z,91.00
2018-03-29T02:28:04.753Z,90.90
2018-03-29T02:29:57.667Z,90.71
2018-03-29T02:30:57.664Z,90.52
2018-03-29T02:32:50.565Z,90.19
2018-03-29T02:33:50.575Z,90.86
2018-03-29T02:35:43.487Z,90.90
2018-03-29T02:36:43.491Z,91.00
2018-03-29T02:38:36.402Z,90.76
2018-03-29T02:39:36.395Z,90.90
2018-03-29T02:41:29.302Z,91.05
2018-03-29T02:42:29.311Z,90.67
2018-03-29T02:44:22.224Z,90.76
2018-03-29T02:45:22.219Z,90.71
2018-03-29T02:47:15.121Z,91.00
2018-03-29T02:48:15.136Z,90.95
2018-03-29T02:50:08.049Z,90.67
2018-03-29T02:51:08.044Z,91.14
2018-03-29T02:53:00.943Z,91.61
2018-03-29T02:54:00.955Z,91.61
2018-03-29T02:55:53.878Z,91.61
2018-03-29T02:56:53.868Z,91.52
2018-03-29T02:58:46.786Z,91.42
2018-03-29T02:59:46.782Z,91.61
2018-03-29T03:01:39.677Z,91.24
2018-03-29T03:02:39.692Z,91.42
2018-03-29T03:04:32.604Z,91.24
2018-03-29T03:05:32.599Z,91.38
2018-03-29T03:07:25.501Z,91.14
2018-03-29T03:08:25.516Z,91.24
2018-03-29T03:10:18.426Z,91.09
2018-03-29T03:11:18.427Z,90.67
2018-03-29T03:13:11.320Z,90.33
2018-03-29T03:14:11.334Z,90.76
2018-03-29T03:16:04.248Z,90.05
2018-03-29T03:17:04.285Z,90.29
2018-03-29T03:18:57.162Z,89.95
2018-03-29T03:19:57.158Z,89.53
2018-03-29T03:21:50.054Z,90.10
2018-03-29T03:22:50.070Z,90.24
2018-03-29T03:24:42.984Z,90.00
2018-03-29T03:25:42.979Z,89.72
2018-03-29T03:27:35.877Z,89.43
2018-03-29T03:28:35.889Z,90.10
2018-03-29T03:30:28.805Z,89.72
2018-03-29T03:31:28.801Z,90.48
2018-03-29T03:33:21.696Z,90.95
2018-03-29T03:34:21.710Z,91.05
2018-03-29T03:36:14.628Z,89.91
2018-03-29T03:37:14.626Z,90.29
2018-03-29T03:39:07.539Z,90.67
2018-03-29T03:40:07.541Z,90.95
2018-03-29T03:42:00.432Z,91.05
2018-03-29T03:43:00.514Z,91.05
2018-03-29T03:44:53.360Z,90.10
2018-03-29T03:45:53.358Z,90.76
2018-03-29T03:47:46.254Z,90.57
2018-03-29T03:48:46.268Z,90.95
2018-03-29T03:50:39.180Z,90.95
2018-03-29T03:51:39.174Z,91.52
2018-03-29T03:53:32.068Z,91.42
2018-03-29T03:54:32.083Z,91.61
2018-03-29T03:56:24.998Z,91.05
2018-03-29T03:57:24.994Z,90.95
2018-03-29T03:59:17.907Z,90.86
2018-03-29T04:00:17.902Z,91.05
2018-03-29T04:02:10.798Z,90.57
2018-03-29T04:03:10.816Z,90.95
2018-03-29T04:05:03.733Z,91.24
2018-03-29T04:06:03.727Z,91.94
2018-03-29T04:07:56.622Z,91.33
2018-03-29T04:08:56.639Z,91.24
2018-03-29T04:10:49.554Z,90.86
2018-03-29T04:11:49.547Z,92.09
2018-03-29T04:13:42.446Z,91.28
2018-03-29T04:14:42.456Z,91.52
2018-03-29T04:16:35.371Z,91.09
2018-03-29T04:17:35.370Z,90.19
2018-03-29T04:19:28.283Z,90.95
2018-03-29T04:20:28.280Z,90.57
2018-03-29T04:22:21.182Z,90.71
2018-03-29T04:23:21.195Z,91.00
2018-03-29T04:25:14.113Z,90.86
2018-03-29T04:26:14.107Z,91.09
2018-03-29T04:28:07.002Z,90.90
2018-03-29T04:29:07.019Z,91.09
2018-03-29T04:30:59.934Z,90.90
2018-03-29T04:31:59.930Z,90.90
2018-03-29T04:33:52.827Z,90.81
2018-03-29T04:34:52.840Z,90.86
2018-03-29T04:36:45.761Z,90.52
2018-03-29T04:37:45.755Z,91.00
2018-03-29T04:39:38.669Z,91.00
2018-03-29T04:40:38.664Z,90.52
2018-03-29T04:42:31.559Z,90.67
2018-03-29T04:43:31.574Z,91.09
2018-03-29T04:45:24.488Z,91.00
2018-03-29T04:46:24.485Z,91.09
2018-03-29T04:48:17.381Z,90.90
2018-03-29T04:49:17.397Z,90.90
2018-03-29T04:51:10.311Z,90.90
2018-03-29T04:52:10.309Z,90.24
2018-03-29T04:54:03.202Z,89.76
2018-03-29T04:55:03.217Z,89.67
2018-03-29T04:56:56.132Z,89.29
2018-03-29T04:57:56.131Z,89.76
2018-03-29T04:59:49.041Z,89.76
2018-03-29T05:00:49.038Z,89.95
2018-03-29T05:02:41.935Z,89.86
2018-03-29T05:03:41.955Z,89.48
2018-03-29T05:05:34.872Z,89.00
2018-03-29T05:06:34.867Z,89.95
2018-03-29T05:08:27.763Z,89.95
2018-03-29T05:09:27.779Z,89.58
2018-03-29T05:11:20.694Z,89.29
2018-03-29T05:12:20.692Z,89.58
2018-03-29T05:14:13.586Z,89.86
2018-03-29T05:15:13.600Z,89.10
2018-03-29T05:17:06.519Z,89.20
2018-03-29T05:18:06.513Z,89.67
2018-03-29T05:19:59.432Z,89.39
2018-03-29T05:20:59.429Z,89.76
2018-03-29T05:22:52.328Z,89.48
2018-03-29T05:23:52.340Z,89.00
2018-03-29T05:25:45.264Z,89.20
2018-03-29T05:26:45.259Z,89.10
2018-03-29T05:28:38.157Z,89.10
2018-03-29T05:29:38.167Z,89.00
2018-03-29T05:31:31.081Z,88.53
2018-03-29T05:32:31.078Z,88.43
2018-03-29T05:34:23.980Z,88.53
2018-03-29T05:35:23.996Z,89.10
2018-03-29T05:37:16.911Z,89.20
2018-03-29T05:38:16.909Z,89.20
2018-03-29T05:40:09.868Z,89.10
2018-03-29T05:41:09.823Z,89.39
2018-03-29T05:43:02.721Z,88.91
2018-03-29T05:44:02.736Z,89.20
2018-03-29T05:45:55.654Z,89.20
2018-03-29T05:46:55.659Z,89.10
2018-03-29T05:48:48.544Z,89.20
2018-03-29T05:49:48.565Z,89.20
2018-03-29T05:51:41.474Z,89.48
2018-03-29T05:52:41.472Z,89.39
2018-03-29T05:54:34.364Z,89.00
2018-03-29T05:55:34.380Z,89.10
2018-03-29T05:57:27.300Z,89.00
2018-03-29T05:58:27.298Z,89.10
2018-03-29T06:00:20.216Z,89.39
2018-03-29T06:01:20.209Z,88.81
2018-03-29T06:03:13.117Z,89.20
2018-03-29T06:04:13.124Z,89.39
2018-03-29T06:06:06.039Z,88.72
2018-03-29T06:07:06.035Z,88.81
2018-03-29T06:08:58.930Z,88.34
2018-03-29T06:09:58.947Z,88.34
2018-03-29T06:11:51.870Z,88.34
2018-03-29T06:12:51.861Z,88.62
2018-03-29T06:14:44.757Z,88.39
2018-03-29T06:15:44.775Z,88.39
2018-03-29T06:17:37.690Z,88.39
2018-03-29T06:18:37.686Z,88.48
2018-03-29T06:20:30.607Z,87.82
2018-03-29T06:21:30.607Z,88.29
2018-03-29T06:23:23.518Z,88.34
2018-03-29T06:24:23.519Z,88.43
2018-03-29T06:26:16.436Z,88.43
2018-03-29T06:27:16.432Z,88.81
2018-03-29T06:29:09.336Z,88.62
2018-03-29T06:30:09.401Z,89.20
2018-03-29T06:32:02.319Z,89.10
2018-03-29T06:33:02.261Z,88.95
2018-03-29T06:34:55.158Z,88.86
2018-03-29T06:35:55.171Z,88.48
2018-03-29T06:37:48.088Z,88.67
2018-03-29T06:38:48.086Z,88.48
2018-03-29T06:40:41.006Z,88.76
2018-03-29T06:41:41.001Z,88.67
2018-03-29T06:43:33.897Z,88.48
2018-03-29T06:44:33.913Z,88.67
2018-03-29T06:46:26.860Z,88.67
2018-03-29T06:47:26.832Z,88.76
2018-03-29T06:49:19.730Z,88.95
2018-03-29T06:50:19.744Z,88.10
2018-03-29T06:52:12.664Z,87.53
2018-03-29T06:53:12.659Z,87.15
2018-03-29T06:55:05.555Z,87.10
2018-03-29T06:56:05.573Z,87.91
2018-03-29T06:57:58.489Z,87.82
2018-03-29T06:58:58.487Z,87.01
2018-03-29T07:00:51.407Z,86.39
2018-03-29T07:01:51.401Z,86.72
2018-03-29T07:03:44.302Z,86.53
2018-03-29T07:04:44.317Z,86.63
2018-03-29T07:06:37.233Z,87.10
2018-03-29T07:07:37.233Z,87.38
2018-03-29T07:09:30.132Z,86.53
2018-03-29T07:10:30.146Z,86.53
2018-03-29T07:12:23.063Z,85.86
2018-03-29T07:13:23.062Z,85.86
2018-03-29T07:15:15.960Z,86.29
2018-03-29T07:16:15.979Z,86.00
2018-03-29T07:18:08.894Z,84.95
2018-03-29T07:19:08.895Z,84.58
2018-03-29T07:21:01.810Z,84.72
2018-03-29T07:22:01.808Z,84.48
2018-03-29T07:23:54.707Z,85.15
2018-03-29T07:24:54.733Z,84.67
2018-03-29T07:26:47.643Z,84.39
2018-03-29T07:27:47.641Z,84.20
2018-03-29T07:29:40.540Z,84.29
2018-03-29T07:30:40.557Z,84.20
2018-03-29T07:32:33.478Z,84.10
2018-03-29T07:33:33.474Z,84.20
2018-03-29T07:35:26.372Z,84.01
2018-03-29T07:36:26.400Z,84.86
2018-03-29T07:38:19.315Z,84.10
2018-03-29T07:39:19.313Z,84.10
2018-03-29T07:41:12.230Z,83.06
2018-03-29T07:42:12.227Z,82.68
2018-03-29T07:44:05.130Z,82.49
2018-03-29T07:45:05.149Z,83.06
2018-03-29T07:46:58.071Z,83.06
2018-03-29T07:47:58.079Z,83.15
2018-03-29T07:49:50.987Z,82.39
2018-03-29T07:50:51.007Z,82.68
2018-03-29T07:52:43.924Z,82.68
2018-03-29T07:53:43.924Z,83.06
2018-03-29T07:55:36.825Z,83.91
2018-03-29T07:56:36.844Z,83.15
2018-03-29T07:58:29.766Z,83.53
2018-03-29T07:59:29.764Z,84.10
2018-03-29T08:01:22.687Z,83.91
2018-03-29T08:02:22.680Z,83.82
2018-03-29T08:04:15.592Z,83.39
2018-03-29T08:05:15.605Z,83.00
2018-03-29T08:07:08.532Z,82.91
2018-03-29T08:08:08.532Z,82.71
2018-03-29T08:10:01.436Z,81.86
2018-03-29T08:11:01.449Z,81.96
2018-03-29T08:12:54.388Z,80.82
2018-03-29T08:13:54.371Z,80.53
2018-03-29T08:15:47.272Z,81.29
2018-03-29T08:16:47.290Z,81.29
2018-03-29T08:18:40.210Z,80.00
2018-03-29T08:19:40.213Z,79.43
2018-03-29T08:21:33.130Z,79.33
2018-03-29T08:22:33.130Z,78.96
2018-03-29T08:24:26.055Z,79.33
2018-03-29T08:25:26.076Z,79.33
2018-03-29T08:27:19.025Z,78.25
2018-03-29T08:28:18.993Z,79.30
2018-03-29T08:30:11.894Z,79.30
2018-03-29T08:31:11.914Z,79.77
2018-03-29T08:33:04.837Z,79.20
2018-03-29T08:34:04.834Z,77.68
2018-03-29T08:35:57.775Z,79.11
2018-03-29T08:36:57.789Z,79.11
2018-03-29T08:38:50.716Z,79.30
2018-03-29T08:39:50.716Z,77.49
2018-03-29T08:41:43.640Z,78.77
2018-03-29T08:42:43.749Z,77.72
2018-03-29T08:44:36.543Z,77.15
2018-03-29T08:45:36.559Z,76.90
2018-03-29T08:47:29.485Z,76.61
2018-03-29T08:48:29.483Z,76.33
2018-03-29T08:50:22.405Z,76.14
2018-03-29T08:51:22.457Z,75.85
2018-03-29T08:53:15.346Z,75.38
2018-03-29T08:54:15.346Z,74.33
2018-03-29T08:56:08.248Z,75.19
2018-03-29T08:57:08.267Z,75.57
2018-03-29T08:59:01.197Z,75.67
2018-03-29T09:00:01.191Z,75.67
2018-03-29T09:01:54.119Z,75.28
2018-03-29T09:02:54.120Z,74.71
2018-03-29T09:04:47.021Z,74.24
2018-03-29T09:05:47.039Z,74.33
2018-03-29T09:07:40.454Z,73.66
2018-03-29T09:08:40.455Z,74.43
2018-03-29T09:10:33.358Z,74.14
2018-03-29T09:11:33.376Z,73.66
2018-03-29T09:13:26.302Z,73.19
2018-03-29T09:14:26.302Z,72.90
2018-03-29T09:16:19.207Z,73.76
2018-03-29T09:17:19.225Z,75.09
2018-03-29T09:19:12.175Z,75.47
2018-03-29T09:20:12.154Z,74.14
2018-03-29T09:22:05.093Z,72.24
2018-03-29T09:23:05.092Z,71.76
2018-03-29T09:24:58.009Z,71.86
2018-03-29T09:25:58.038Z,71.28
2018-03-29T09:27:50.955Z,70.81
2018-03-29T09:28:50.957Z,71.38
2018-03-29T09:30:43.865Z,71.67
2018-03-29T09:31:43.888Z,71.67
2018-03-29T09:33:36.826Z,71.67
2018-03-29T09:34:36.825Z,71.67
2018-03-29T09:36:29.726Z,71.57
2018-03-29T09:37:29.746Z,71.47
2018-03-29T09:39:22.672Z,71.47
2018-03-29T09:40:22.668Z,71.67
2018-03-29T09:42:15.592Z,70.33
2018-03-29T09:43:15.590Z,70.90
2018-03-29T09:45:08.499Z,70.33
2018-03-29T09:46:08.522Z,71.09
2018-03-29T09:48:02.476Z,71.28
2018-03-29T09:49:01.440Z,72.14
2018-03-29T09:50:54.342Z,71.57
2018-03-29T09:51:54.363Z,72.05
2018-03-29T09:53:47.570Z,72.05
2018-03-29T09:54:47.687Z,71.86
2018-03-29T09:56:40.698Z,73.57
2018-03-29T09:57:40.697Z,73.15
2018-03-29T09:59:33.671Z,72.77
2018-03-29T10:00:33.751Z,73.10
2018-03-29T10:02:26.576Z,72.86
2018-03-29T10:03:26.577Z,72.71
2018-03-29T10:05:19.577Z,72.42
2018-03-29T10:06:19.630Z,72.71
2018-03-29T10:08:12.874Z,73.47
2018-03-29T10:09:12.582Z,72.42
2018-03-29T10:11:06.795Z,72.14
2018-03-29T10:12:06.822Z,71.42
2018-03-29T10:14:00.876Z,71.61
2018-03-29T10:15:01.014Z,70.94
2018-03-29T10:16:53.782Z,71.03
2018-03-29T10:17:53.818Z,69.99
2018-03-29T10:19:46.760Z,69.32
2018-03-29T10:20:46.764Z,69.13
2018-03-29T10:22:39.676Z,69.51
2018-03-29T10:23:39.680Z,70.37
2018-03-29T10:25:32.606Z,71.61
2018-03-29T10:26:32.623Z,70.69
2018-03-29T10:28:25.546Z,69.83
2018-03-29T10:29:25.548Z,69.26
2018-03-29T10:31:18.451Z,70.21
2018-03-29T10:32:18.485Z,67.55
2018-03-29T10:34:11.395Z,68.40
2018-03-29T10:35:11.397Z,69.83
2018-03-29T10:37:04.333Z,69.45
2018-03-29T10:38:04.353Z,67.07
2018-03-29T10:39:57.666Z,67.93
2018-03-29T10:40:57.670Z,67.16
2018-03-29T10:42:50.597Z,67.64
2018-03-29T10:43:50.601Z,67.74
2018-03-29T10:45:43.503Z,68.69
2018-03-29T10:46:43.526Z,68.21
2018-03-29T10:48:37.298Z,66.50
2018-03-29T10:49:36.463Z,66.69
2018-03-29T10:51:29.406Z,67.07
2018-03-29T10:52:29.444Z,66.59
2018-03-29T10:54:22.383Z,66.50
2018-03-29T10:55:22.374Z,66.59
2018-03-29T10:57:15.297Z,66.21
2018-03-29T10:58:15.318Z,64.84
2018-03-29T11:00:08.258Z,66.11
2018-03-29T11:01:08.243Z,66.21
2018-03-29T11:03:01.184Z,68.24
2018-03-29T11:04:01.190Z,67.29
2018-03-29T11:05:54.101Z,67.58
2018-03-29T11:06:54.128Z,68.05
2018-03-29T11:08:47.051Z,65.00
2018-03-29T11:09:47.051Z,65.00
2018-03-29T11:11:39.969Z,64.91
2018-03-29T11:12:39.986Z,63.67
2018-03-29T11:14:33.412Z,63.83
2018-03-29T11:15:33.408Z,64.50
2018-03-29T11:17:26.311Z,64.69
2018-03-29T11:18:26.330Z,65.07
2018-03-29T11:20:19.260Z,64.78
2018-03-29T11:21:19.255Z,63.45
2018-03-29T11:23:12.182Z,64.50
2018-03-29T11:24:12.183Z,64.40
2018-03-29T11:26:05.090Z,64.97
2018-03-29T11:27:05.112Z,65.36
2018-03-29T11:28:58.039Z,64.12
2018-03-29T11:29:58.038Z,65.36
2018-03-29T11:31:50.948Z,65.26
2018-03-29T11:32:50.961Z,64.21
2018-03-29T11:34:43.888Z,63.45
2018-03-29T11:35:43.888Z,63.07
2018-03-29T11:37:36.798Z,64.40
2018-03-29T11:38:36.818Z,64.31
2018-03-29T11:40:29.743Z,64.37
2018-03-29T11:41:29.745Z,65.42
2018-03-29T11:43:22.672Z,65.83
2018-03-29T11:44:22.688Z,66.02
2018-03-29T11:46:15.585Z,66.11
2018-03-29T11:47:15.606Z,67.64
2018-03-29T11:49:08.528Z,68.91
2018-03-29T11:50:08.533Z,67.96
2018-03-29T11:52:01.436Z,67.14
2018-03-29T11:53:01.455Z,66.85
2018-03-29T11:54:54.383Z,68.47
2018-03-29T11:55:54.381Z,69.81
2018-03-29T11:57:47.298Z,69.27
2018-03-29T11:58:47.311Z,68.70
2018-03-29T12:00:40.243Z,68.06
2018-03-29T12:01:40.243Z,65.96
2018-03-29T12:03:33.172Z,63.57
2018-03-29T12:04:33.172Z,61.38
2018-03-29T12:06:26.078Z,62.81
2018-03-29T12:07:26.098Z,64.05
2018-03-29T12:09:19.028Z,63.48
2018-03-29T12:10:19.031Z,63.76
2018-03-29T12:12:12.121Z,60.71
2018-03-29T12:13:12.141Z,61.47
2018-03-29T12:15:05.076Z,62.62
2018-03-29T12:16:05.075Z,61.19
2018-03-29T12:17:58.988Z,59.38
2018-03-29T12:18:59.004Z,58.99
2018-03-29T12:20:51.929Z,59.19
2018-03-29T12:21:51.934Z,58.51
2018-03-29T12:23:44.863Z,58.68
2018-03-29T12:24:44.863Z,59.25
2018-03-29T12:26:37.770Z,60.78
2018-03-29T12:27:37.792Z,61.16
2018-03-29T12:29:30.883Z,60.78
2018-03-29T12:30:30.889Z,59.92
2018-03-29T12:32:23.797Z,60.11
2018-03-29T12:33:23.820Z,59.82
2018-03-29T12:35:16.760Z,59.34
2018-03-29T12:36:16.767Z,59.53
2018-03-29T12:38:09.676Z,58.97
2018-03-29T12:39:16.820Z,58.68
2018-03-29T12:41:02.634Z,59.09
2018-03-29T12:42:02.629Z,59.66
2018-03-29T12:43:55.549Z,58.51
2018-03-29T12:44:55.612Z,57.75
2018-03-29T12:46:48.497Z,57.85
2018-03-29T12:47:48.487Z,57.56
2018-03-29T12:49:41.407Z,58.36
2018-03-29T12:50:41.410Z,57.78
2018-03-29T12:52:34.329Z,56.06
2018-03-29T12:53:34.368Z,56.06
2018-03-29T12:55:27.796Z,56.45
2018-03-29T12:56:27.800Z,55.58
2018-03-29T12:58:20.710Z,54.06
2018-03-29T12:59:20.731Z,53.36
2018-03-29T13:01:13.660Z,54.60
2018-03-29T13:02:13.664Z,55.55
2018-03-29T13:04:06.641Z,54.79
2018-03-29T13:05:06.643Z,53.10
2018-03-29T13:06:59.556Z,52.98
2018-03-29T13:07:59.586Z,52.98
2018-03-29T13:09:52.510Z,52.03
2018-03-29T13:10:52.515Z,51.83
2018-03-29T13:12:45.421Z,53.45
2018-03-29T13:13:45.443Z,53.27
2018-03-29T13:15:38.386Z,53.08
2018-03-29T13:16:38.370Z,53.08
2018-03-29T13:18:31.295Z,52.50
2018-03-29T13:19:31.305Z,52.69
2018-03-29T13:21:24.433Z,53.27
2018-03-29T13:22:24.493Z,53.84
2018-03-29T13:24:17.364Z,53.84
2018-03-29T13:25:17.422Z,53.27
2018-03-29T13:27:10.279Z,52.69
2018-03-29T13:28:10.301Z,53.86
2018-03-29T13:30:03.232Z,52.50
2018-03-29T13:31:03.232Z,52.88
2018-03-29T13:32:56.632Z,51.93
2018-03-29T13:33:56.654Z,52.98
2018-03-29T13:35:49.580Z,52.40
2018-03-29T13:36:49.581Z,53.36
2018-03-29T13:38:42.486Z,53.65
2018-03-29T13:39:42.513Z,53.84
2018-03-29T13:41:35.434Z,53.55
2018-03-29T13:42:35.438Z,54.50
2018-03-29T13:44:28.402Z,55.36
2018-03-29T13:45:28.404Z,54.79
2018-03-29T13:47:21.313Z,56.04
2018-03-29T13:48:21.334Z,56.60
2018-03-29T13:50:14.263Z,58.80
2018-03-29T13:51:14.267Z,58.87
2018-03-29T13:53:07.175Z,58.87
2018-03-29T13:54:07.218Z,59.63
2018-03-29T13:56:00.125Z,59.73
2018-03-29T13:57:00.126Z,60.78
2018-03-29T13:58:53.032Z,63.42
2018-03-29T13:59:53.122Z,65.33
2018-03-29T14:01:46.204Z,66.66
2018-03-29T14:02:46.210Z,67.23
2018-03-29T14:04:39.151Z,67.90
2018-03-29T14:05:39.136Z,67.86
2018-03-29T14:07:32.043Z,68.53
2018-03-29T14:08:32.063Z,68.82
2018-03-29T14:10:25.004Z,69.68
2018-03-29T14:11:25.007Z,70.53
2018-03-29T14:13:17.917Z,69.58
2018-03-29T14:14:17.936Z,70.53
2018-03-29T14:16:10.910Z,71.48
2018-03-29T14:17:10.862Z,71.64
2018-03-29T14:19:03.793Z,70.97
2018-03-29T14:20:03.841Z,71.36
2018-03-29T14:21:56.760Z,72.02
2018-03-29T14:22:56.779Z,71.73
2018-03-29T14:24:49.774Z,69.93
2018-03-29T14:25:49.663Z,68.59
2018-03-29T14:27:42.593Z,68.50
2018-03-29T14:28:42.585Z,68.50
2018-03-29T14:30:35.733Z,67.83
2018-03-29T14:31:35.698Z,69.07
2018-03-29T14:33:28.594Z,69.17
2018-03-29T14:34:28.626Z,68.69
2018-03-29T14:36:21.524Z,67.35
2018-03-29T14:37:21.526Z,65.64
2018-03-29T14:39:14.436Z,65.16
2018-03-29T14:40:14.460Z,62.49
2018-03-29T14:42:07.382Z,63.39
2018-03-29T14:43:07.407Z,64.12
2018-03-29T14:45:00.307Z,63.86
2018-03-29T14:46:00.307Z,62.24
2018-03-29T14:47:53.276Z,61.38
2018-03-29T14:48:53.239Z,61.19
2018-03-29T14:50:46.757Z,61.10
2018-03-29T14:51:46.212Z,61.67
2018-03-29T14:53:39.123Z,62.65
2018-03-29T14:54:39.105Z,61.70
2018-03-29T14:56:32.544Z,60.36
2018-03-29T14:57:32.513Z,59.41
2018-03-29T14:59:25.499Z,60.55
2018-03-29T15:00:25.463Z,60.08
2018-03-29T15:02:18.768Z,59.41
2018-03-29T15:03:19.064Z,59.79
2018-03-29T15:05:11.877Z,60.75
2018-03-29T15:06:11.870Z,59.79
2018-03-29T15:08:04.822Z,59.70
2018-03-29T15:09:04.802Z,59.79
2018-03-29T15:10:57.733Z,59.41
2018-03-29T15:11:57.738Z,59.70
2018-03-29T15:13:51.196Z,58.75
2018-03-29T15:14:51.177Z,58.46
2018-03-29T15:16:44.615Z,58.46
2018-03-29T15:17:44.608Z,58.84
2018-03-29T15:19:37.539Z,59.60
2018-03-29T15:20:37.577Z,58.94
2018-03-29T15:22:31.466Z,58.17
2018-03-29T15:23:31.462Z,58.46
2018-03-29T15:25:24.399Z,59.79
2018-03-29T15:26:24.416Z,59.60
2018-03-29T15:28:17.317Z,59.70
2018-03-29T15:29:17.334Z,59.70
2018-03-29T15:31:11.296Z,60.65
2018-03-29T15:32:11.299Z,60.65
2018-03-29T15:34:04.205Z,61.04
2018-03-29T15:35:04.223Z,61.22
2018-03-29T15:36:58.072Z,61.51
2018-03-29T15:37:57.163Z,62.75
2018-03-29T15:39:50.061Z,63.32
2018-03-29T15:40:50.081Z,63.60
2018-03-29T15:42:43.011Z,63.39
2018-03-29T15:43:43.009Z,63.76
2018-03-29T15:45:35.936Z,64.43
2018-03-29T15:46:35.935Z,64.62
2018-03-29T15:48:28.848Z,65.29
2018-03-29T15:49:28.864Z,65.36
2018-03-29T15:51:21.788Z,66.31
2018-03-29T15:52:21.793Z,66.88
2018-03-29T15:54:14.692Z,66.40
2018-03-29T15:55:14.712Z,65.80
2018-03-29T15:57:07.633Z,67.22
2018-03-29T15:58:07.634Z,67.61
2018-03-29T16:00:00.537Z,68.08
2018-03-29T16:01:00.554Z,68.37
2018-03-29T16:02:53.476Z,67.80
2018-03-29T16:03:53.484Z,67.80
2018-03-29T16:05:46.407Z,67.89
2018-03-29T16:06:46.418Z,67.51
2018-03-29T16:08:40.334Z,67.32
2018-03-29T16:09:40.355Z,67.13
2018-03-29T16:11:33.278Z,67.13
2018-03-29T16:12:33.297Z,67.22
2018-03-29T16:14:26.182Z,67.13
2018-03-29T16:15:26.197Z,67.41
2018-03-29T16:17:19.166Z,67.61
2018-03-29T16:18:19.123Z,67.89
2018-03-29T16:20:12.037Z,67.80
2018-03-29T16:21:12.049Z,68.15
2018-03-29T16:23:05.157Z,67.00
2018-03-29T16:24:05.158Z,67.10
2018-03-29T16:25:58.080Z,67.00
2018-03-29T16:26:58.080Z,67.29
2018-03-29T16:28:50.986Z,67.10
2018-03-29T16:29:51.000Z,67.76
2018-03-29T16:31:43.919Z,68.05
2018-03-29T16:32:43.925Z,67.67
2018-03-29T16:34:36.826Z,67.76
2018-03-29T16:35:36.846Z,68.05
2018-03-29T16:37:29.766Z,68.33
2018-03-29T16:38:29.788Z,68.33
2018-03-29T16:40:22.667Z,69.00
2018-03-29T16:41:22.684Z,69.29
2018-03-29T16:43:15.657Z,69.76
2018-03-29T16:44:15.604Z,69.85
2018-03-29T16:46:08.524Z,70.72
2018-03-29T16:47:08.570Z,71.09
2018-03-29T16:49:01.477Z,71.00
2018-03-29T16:50:01.469Z,70.90
2018-03-29T16:51:54.364Z,70.72
2018-03-29T16:52:54.369Z,71.00
2018-03-29T16:54:47.437Z,70.62
2018-03-29T16:55:47.455Z,70.43
2018-03-29T16:57:40.372Z,69.57
2018-03-29T16:58:40.377Z,69.29
2018-03-29T17:00:33.275Z,69.57
2018-03-29T17:01:33.337Z,69.19
2018-03-29T17:03:26.217Z,69.76
2018-03-29T17:04:26.212Z,70.24
2018-03-29T17:06:19.141Z,69.95
2018-03-29T17:07:19.137Z,69.85
2018-03-29T17:09:12.042Z,69.95
2018-03-29T17:10:12.061Z,69.85
2018-03-29T17:12:04.981Z,70.05
2018-03-29T17:13:05.004Z,70.39
2018-03-29T17:14:57.881Z,71.00
2018-03-29T17:15:57.902Z,70.43
2018-03-29T17:17:50.841Z,70.49
2018-03-29T17:18:50.819Z,70.30
2018-03-29T17:20:43.721Z,70.58
2018-03-29T17:21:43.737Z,70.68
2018-03-29T17:23:36.664Z,70.68
2018-03-29T17:24:36.655Z,70.77
2018-03-29T17:26:29.574Z,70.87
2018-03-29T17:27:29.573Z,70.87
2018-03-29T17:29:22.479Z,70.87
2018-03-29T17:30:22.499Z,70.58
2018-03-29T17:32:15.415Z,70.87
2018-03-29T17:33:15.413Z,70.77
2018-03-29T17:35:08.317Z,71.34
2018-03-29T17:36:08.366Z,71.06
2018-03-29T17:38:01.252Z,71.25
2018-03-29T17:39:01.265Z,71.25
2018-03-29T17:40:54.158Z,71.44
2018-03-29T17:41:54.176Z,71.44
2018-03-29T17:43:47.097Z,71.82
2018-03-29T17:44:47.087Z,71.78
2018-03-29T17:46:40.011Z,71.44
2018-03-29T17:47:40.010Z,71.50
2018-03-29T17:49:32.911Z,72.07
2018-03-29T17:50:32.926Z,71.88
2018-03-29T17:52:25.856Z,71.97
2018-03-29T17:53:25.853Z,71.97
2018-03-29T17:55:18.797Z,72.45
2018-03-29T17:56:18.813Z,72.35
2018-03-29T17:58:11.940Z,72.64
2018-03-29T17:59:11.732Z,72.74
2018-03-29T18:01:04.637Z,72.83
2018-03-29T18:02:04.649Z,72.35
2018-03-29T18:03:57.575Z,72.83
2018-03-29T18:04:57.578Z,72.92
2018-03-29T18:06:50.490Z,72.83
2018-03-29T18:07:50.487Z,73.40
2018-03-29T18:09:43.399Z,73.69
2018-03-29T18:10:43.417Z,73.78
2018-03-29T18:12:36.339Z,74.26
2018-03-29T18:13:36.335Z,74.60
2018-03-29T18:15:29.235Z,74.51
2018-03-29T18:16:29.274Z,74.51
2018-03-29T18:18:22.174Z,74.60
2018-03-29T18:19:22.170Z,74.69
2018-03-29T18:21:15.073Z,75.17
2018-03-29T18:22:15.091Z,75.26
2018-03-29T18:24:08.008Z,75.74
2018-03-29T18:25:08.017Z,75.26
2018-03-29T18:27:00.929Z,75.55
2018-03-29T18:28:00.944Z,75.64
2018-03-29T18:29:53.855Z,75.36
2018-03-29T18:30:53.851Z,76.12
2018-03-29T18:32:46.782Z,76.03